createdAt,value
2022-09-28T00:00:14.141Z,8.50
2022-09-28T00:03:15.698Z,8.46
2022-09-28T00:06:05.315Z,8.42
2022-09-28T00:08:49.578Z,8.39
2022-09-28T00:11:31.231Z,8.35
2022-09-28T00:14:13.495Z,8.32
2022-09-28T00:16:55.416Z,8.28
2022-09-28T00:19:37.107Z,8.24
2022-09-28T00:22:18.798Z,8.20
2022-09-28T00:25:00.489Z,8.17
2022-09-28T00:27:42.306Z,8.13
2022-09-28T00:30:24.074Z,8.09
2022-09-28T00:33:05.971Z,8.06
2022-09-28T00:35:54.318Z,8.01
2022-09-28T00:38:36.214Z,7.97
2022-09-28T00:41:18.201Z,7.93
2022-09-28T00:44:32.056Z,7.90
2022-09-28T00:47:19.954Z,7.87
2022-09-28T00:50:07.018Z,7.83
2022-09-28T00:53:10.921Z,7.79
2022-09-28T00:55:57.430Z,7.77
2022-09-28T00:58:46.591Z,7.74
2022-09-28T01:01:28.794Z,7.70
2022-09-28T01:04:10.895Z,7.66
2022-09-28T01:06:52.995Z,7.63
2022-09-28T01:09:38.679Z,7.60
2022-09-28T01:12:20.575Z,7.57
2022-09-28T01:15:03.705Z,7.55
2022-09-28T01:18:00.751Z,7.52
2022-09-28T01:21:14.902Z,7.48
2022-09-28T01:24:11.009Z,7.44
2022-09-28T01:27:27.027Z,7.42
2022-09-28T01:30:17.249Z,7.37
2022-09-28T01:33:05.794Z,7.34
2022-09-28T01:36:02.923Z,7.30
2022-09-28T01:38:55.877Z,7.27
2022-09-28T01:41:41.564Z,7.22
2022-09-28T01:44:26.223Z,7.14
2022-09-28T01:47:12.537Z,7.08
2022-09-28T01:50:09.982Z,7.01
2022-09-28T01:53:21.501Z,6.93
2022-09-28T01:56:16.279Z,6.85
2022-09-28T01:59:06.739Z,6.76
2022-09-28T02:01:57.730Z,6.69
2022-09-28T02:04:49.810Z,6.61
2022-09-28T02:07:45.328Z,6.53
2022-09-28T02:10:46.371Z,6.49
2022-09-28T02:13:37.689Z,6.45
2022-09-28T02:16:32.720Z,6.41
2022-09-28T02:19:21.445Z,6.34
2022-09-28T02:22:25.255Z,6.30
2022-09-28T02:25:29.211Z,6.25
2022-09-28T02:28:13.683Z,6.19
2022-09-28T02:30:55.314Z,6.08
2022-09-28T02:33:40.816Z,6.04
2022-09-28T02:36:24.930Z,6.03
2022-09-28T02:39:14.143Z,6.03
2022-09-28T02:42:21.399Z,6.01
2022-09-28T02:45:48.419Z,5.99
2022-09-28T02:49:17.275Z,5.94
2022-09-28T02:52:24.952Z,5.91
2022-09-28T02:55:19.133Z,5.91
2022-09-28T02:58:07.277Z,5.94
2022-09-28T03:01:02.194Z,5.94
2022-09-28T03:04:17.353Z,5.93
2022-09-28T03:07:11.535Z,5.93
2022-09-28T03:10:02.898Z,5.93
2022-09-28T03:12:48.406Z,5.92
2022-09-28T03:15:33.630Z,5.91
2022-09-28T03:18:15.507Z,5.90
2022-09-28T03:20:57.870Z,5.87
2022-09-28T03:23:41.475Z,5.84
2022-09-28T03:26:23.240Z,5.77
2022-09-28T03:29:05.338Z,5.71
2022-09-28T03:31:48.117Z,5.66
2022-09-28T03:34:29.850Z,5.63
2022-09-28T03:37:11.844Z,5.59
2022-09-28T03:39:53.842Z,5.55
2022-09-28T03:42:37.016Z,5.51
2022-09-28T03:45:19.143Z,5.49
2022-09-28T03:48:03.115Z,5.47
2022-09-28T03:50:44.805Z,5.49
2022-09-28T03:53:26.597Z,5.50
2022-09-28T03:56:14.231Z,5.52
2022-09-28T03:58:56.533Z,5.55
2022-09-28T04:01:38.222Z,5.55
2022-09-28T04:04:20.326Z,5.55
2022-09-28T04:07:02.119Z,5.56
2022-09-28T04:09:43.808Z,5.56
2022-09-28T04:12:25.499Z,5.51
2022-09-28T04:15:07.811Z,5.45
2022-09-28T04:17:49.598Z,5.36
2022-09-28T04:20:48.390Z,5.25
2022-09-28T04:23:30.903Z,5.16
2022-09-28T04:26:19.062Z,5.09
2022-09-28T04:29:16.232Z,5.02
2022-09-28T04:32:02.417Z,4.91
2022-09-28T04:34:50.129Z,4.78
2022-09-28T04:37:31.816Z,4.64
2022-09-28T04:40:13.609Z,4.52
2022-09-28T04:42:56.840Z,4.47
2022-09-28T04:45:39.790Z,4.46
2022-09-28T04:48:25.236Z,4.50
2022-09-28T04:51:20.034Z,4.55
2022-09-28T04:54:01.699Z,4.58
2022-09-28T04:56:43.362Z,4.61
2022-09-28T04:59:25.108Z,4.63
2022-09-28T05:02:07.130Z,4.65
2022-09-28T05:05:08.157Z,4.68
2022-09-28T05:07:58.995Z,4.70
2022-09-28T05:10:40.850Z,4.75
2022-09-28T05:13:22.848Z,4.81
2022-09-28T05:16:05.708Z,4.86
2022-09-28T05:18:57.426Z,4.91
2022-09-28T05:21:39.240Z,4.96
2022-09-28T05:24:20.894Z,4.98
2022-09-28T05:27:05.893Z,5.02
2022-09-28T05:29:52.406Z,5.06
2022-09-28T05:32:46.325Z,5.12
2022-09-28T05:35:40.819Z,5.17
2022-09-28T05:38:22.816Z,5.18
2022-09-28T05:41:06.821Z,5.16
2022-09-28T05:43:48.858Z,5.16
2022-09-28T05:46:30.991Z,5.18
2022-09-28T05:49:15.107Z,5.21
2022-09-28T05:56:24.048Z,5.32
2022-09-28T05:59:09.544Z,5.35
2022-09-28T06:01:51.747Z,5.37
2022-09-28T06:04:33.643Z,5.41
2022-09-28T06:07:15.642Z,5.45
2022-09-28T06:09:58.317Z,5.49
2022-09-28T06:13:06.879Z,5.55
2022-09-28T06:15:48.567Z,5.60
2022-09-28T06:18:30.259Z,5.62
2022-09-28T06:21:32.224Z,5.69
2022-09-28T06:24:14.061Z,5.75
2022-09-28T06:26:55.913Z,5.86
2022-09-28T06:29:37.605Z,6.28
2022-09-28T06:32:19.910Z,6.41
2022-09-28T06:35:03.855Z,6.43
2022-09-28T06:37:45.645Z,6.44
2022-09-28T06:40:28.196Z,6.48
2022-09-28T06:43:14.890Z,6.51
2022-09-28T06:46:15.782Z,6.58
2022-09-28T06:49:09.479Z,6.66
2022-09-28T06:52:29.468Z,6.75
2022-09-28T06:55:28.670Z,6.80
2022-09-28T06:58:14.997Z,6.85
2022-09-28T07:00:59.891Z,6.91
2022-09-28T07:03:43.572Z,7.10
2022-09-28T07:06:37.459Z,7.40
2022-09-28T07:09:43.730Z,7.75
2022-09-28T07:12:38.004Z,8.11
2022-09-28T07:15:36.691Z,8.44
2022-09-28T07:18:18.856Z,8.76
2022-09-28T07:21:02.941Z,9.07
2022-09-28T07:23:53.491Z,9.33
2022-09-28T07:26:38.508Z,9.58
2022-09-28T07:29:28.493Z,9.78
2022-09-28T07:32:28.925Z,10.11
2022-09-28T07:35:22.699Z,10.43
2022-09-28T07:38:08.076Z,10.93
2022-09-28T07:41:08.579Z,11.27
2022-09-28T07:43:50.917Z,11.60
2022-09-28T07:46:37.238Z,11.84
2022-09-28T07:49:33.016Z,11.88
2022-09-28T07:52:28.961Z,11.72
2022-09-28T07:55:24.884Z,11.50
2022-09-28T07:58:22.858Z,11.35
2022-09-28T08:01:17.794Z,11.27
2022-09-28T08:03:59.654Z,11.27
2022-09-28T08:06:41.450Z,11.28
2022-09-28T08:09:25.215Z,11.42
2022-09-28T08:12:42.205Z,11.38
2022-09-28T08:15:43.250Z,11.29
2022-09-28T08:18:32.006Z,11.21
2022-09-28T08:21:32.640Z,11.14
2022-09-28T08:24:16.568Z,11.06
2022-09-28T08:26:59.164Z,11.03
2022-09-28T08:29:43.550Z,11.07
2022-09-28T08:32:51.046Z,11.14
2022-09-28T08:36:01.308Z,11.29
2022-09-28T08:39:01.941Z,11.42
2022-09-28T08:42:10.973Z,11.71
2022-09-28T08:45:15.475Z,12.01
2022-09-28T08:48:40.815Z,12.40
2022-09-28T08:51:50.781Z,12.73
2022-09-28T08:54:49.558Z,12.63
2022-09-28T08:57:58.385Z,12.54
2022-09-28T09:00:50.296Z,12.48
2022-09-28T09:03:36.412Z,12.48
2022-09-28T09:07:06.539Z,12.51
2022-09-28T09:10:28.782Z,12.60
2022-09-28T09:13:31.666Z,12.54
2022-09-28T09:16:42.325Z,12.48
2022-09-28T09:20:04.484Z,12.63
2022-09-28T09:23:12.722Z,12.75
2022-09-28T09:26:03.949Z,12.94
2022-09-28T09:28:56.449Z,13.23
2022-09-28T09:32:27.599Z,13.60
2022-09-28T09:35:41.959Z,14.00
2022-09-28T09:39:08.498Z,14.41
2022-09-28T09:42:51.529Z,14.75
2022-09-28T09:46:17.014Z,15.06
2022-09-28T09:49:45.329Z,15.24
2022-09-28T09:52:46.783Z,15.39
2022-09-28T09:55:42.195Z,15.45
2022-09-28T09:58:52.999Z,15.33
2022-09-28T10:01:41.240Z,15.23
2022-09-28T10:04:44.552Z,15.32
2022-09-28T10:07:45.046Z,15.50
2022-09-28T10:10:34.517Z,15.69
2022-09-28T10:13:25.525Z,15.67
2022-09-28T10:16:09.471Z,15.80
2022-09-28T10:19:00.682Z,16.03
2022-09-28T10:22:16.678Z,15.83
2022-09-28T10:25:00.145Z,15.60
2022-09-28T10:27:46.200Z,15.39
2022-09-28T10:30:28.674Z,15.20
2022-09-28T10:33:29.454Z,15.03
2022-09-28T10:36:11.658Z,14.83
2022-09-28T10:38:54.652Z,14.70
2022-09-28T10:41:50.585Z,14.48
2022-09-28T10:44:48.881Z,14.31
2022-09-28T10:47:44.501Z,14.20
2022-09-28T10:50:28.259Z,14.20
2022-09-28T10:53:20.658Z,14.21
2022-09-28T10:56:22.774Z,14.20
2022-09-28T10:59:30.760Z,14.24
2022-09-28T11:02:36.333Z,14.16
2022-09-28T11:05:33.874Z,14.07
2022-09-28T11:08:39.728Z,14.00
2022-09-28T11:11:23.543Z,13.92
2022-09-28T11:14:39.777Z,13.86
2022-09-28T11:17:40.750Z,13.84
2022-09-28T11:20:28.164Z,13.79
2022-09-28T11:23:23.037Z,13.70
2022-09-28T11:26:09.203Z,13.59
2022-09-28T11:28:53.116Z,13.54
2022-09-28T11:31:47.674Z,13.48
2022-09-28T11:34:58.511Z,13.38
2022-09-28T11:38:13.211Z,13.27
2022-09-28T11:41:26.130Z,13.28
2022-09-28T11:44:18.575Z,13.27
2022-09-28T11:47:33.546Z,13.30
2022-09-28T11:50:32.440Z,13.36
2022-09-28T11:53:30.412Z,13.43
2022-09-28T11:56:32.889Z,13.49
2022-09-28T11:59:27.892Z,13.55
2022-09-28T12:02:17.356Z,13.54
2022-09-28T12:05:21.047Z,13.51
2022-09-28T12:08:19.046Z,13.54
2022-09-28T12:11:24.294Z,13.57
2022-09-28T12:14:38.414Z,13.58
2022-09-28T12:17:39.058Z,13.56
2022-09-28T12:20:30.085Z,13.52
2022-09-28T12:23:35.943Z,13.47
2022-09-28T12:26:37.175Z,13.41
2022-09-28T12:29:28.509Z,13.34
2022-09-28T12:32:12.965Z,13.28
2022-09-28T12:34:54.656Z,13.20
2022-09-28T12:37:56.622Z,13.16
2022-09-28T12:40:58.301Z,13.15
2022-09-28T12:44:09.601Z,13.12
2022-09-28T12:47:08.929Z,13.12
2022-09-28T12:50:39.043Z,13.11
2022-09-28T12:53:50.078Z,13.08
2022-09-28T12:56:54.340Z,13.03
2022-09-28T12:59:42.342Z,12.98
2022-09-28T13:02:41.926Z,12.91
2022-09-28T13:06:04.597Z,12.85
2022-09-28T13:09:21.123Z,12.79
2022-09-28T13:12:19.795Z,12.77
2022-09-28T13:15:20.094Z,12.76
2022-09-28T13:18:09.171Z,12.74
2022-09-28T13:20:59.613Z,12.72
2022-09-28T13:23:43.693Z,12.70
2022-09-28T13:26:32.028Z,12.69
2022-09-28T13:29:18.438Z,12.67
2022-09-28T13:32:04.126Z,12.65
2022-09-28T13:34:50.683Z,12.62
2022-09-28T13:37:34.844Z,12.58
2022-09-28T13:40:17.649Z,12.56
2022-09-28T13:43:09.828Z,12.53
2022-09-28T13:45:54.779Z,12.33
2022-09-28T13:48:48.918Z,11.95
2022-09-28T13:51:46.788Z,11.59
2022-09-28T13:55:02.681Z,11.15
2022-09-28T13:57:53.252Z,10.76
2022-09-28T14:00:45.683Z,10.48
2022-09-28T14:04:09.810Z,10.31
2022-09-28T14:06:57.371Z,10.25
2022-09-28T14:09:43.192Z,10.24
2022-09-28T14:12:43.246Z,10.27
2022-09-28T14:15:37.511Z,10.29
2022-09-28T14:18:25.828Z,10.27
2022-09-28T14:21:34.399Z,10.21
2022-09-28T14:24:37.290Z,10.13
2022-09-28T14:27:37.620Z,10.06
2022-09-28T14:30:23.367Z,9.99
2022-09-28T14:33:22.510Z,9.95
2022-09-28T14:36:07.793Z,9.95
2022-09-28T14:39:08.823Z,9.95
2022-09-28T14:41:51.843Z,9.93
2022-09-28T14:45:06.329Z,9.90
2022-09-28T14:48:14.413Z,9.90
2022-09-28T14:51:25.087Z,9.93
2022-09-28T14:54:13.024Z,9.96
2022-09-28T14:56:58.295Z,9.95
2022-09-28T14:59:43.749Z,9.96
2022-09-28T15:02:33.043Z,9.97
2022-09-28T15:05:20.512Z,9.97
2022-09-28T15:08:02.876Z,9.98
2022-09-28T15:10:50.271Z,9.97
2022-09-28T15:13:32.402Z,9.97
2022-09-28T15:16:17.274Z,9.98
2022-09-28T15:19:21.150Z,10.16
2022-09-28T15:22:02.973Z,10.49
2022-09-28T15:24:56.641Z,10.77
2022-09-28T15:27:41.611Z,11.05
2022-09-28T15:30:35.095Z,11.26
2022-09-28T15:33:51.075Z,11.46
2022-09-28T15:36:41.295Z,11.65
2022-09-28T15:39:34.294Z,11.80
2022-09-28T15:42:18.538Z,11.82
2022-09-28T15:45:22.794Z,11.71
2022-09-28T15:48:31.173Z,11.53
2022-09-28T15:51:13.747Z,11.33
2022-09-28T15:54:09.425Z,11.17
2022-09-28T15:56:54.979Z,11.00
2022-09-28T15:59:39.418Z,10.85
2022-09-28T16:02:26.090Z,10.74
2022-09-28T16:05:36.338Z,10.64
2022-09-28T16:08:36.809Z,10.55
2022-09-28T16:11:27.582Z,10.48
2022-09-28T16:14:22.482Z,10.43
2022-09-28T16:17:04.477Z,10.37
2022-09-28T16:19:48.833Z,10.33
2022-09-28T16:22:32.978Z,10.27
2022-09-28T16:25:23.966Z,10.21
2022-09-28T16:28:07.114Z,10.17
2022-09-28T16:31:08.011Z,10.13
2022-09-28T16:33:55.936Z,10.07
2022-09-28T16:36:46.673Z,10.03
2022-09-28T16:39:28.803Z,10.00
2022-09-28T16:42:13.046Z,9.98
2022-09-28T16:44:56.859Z,9.95
2022-09-28T16:47:40.322Z,9.94
2022-09-28T16:50:24.235Z,9.91
2022-09-28T16:53:36.674Z,9.88
2022-09-28T16:56:18.878Z,9.84
2022-09-28T16:59:02.938Z,9.82
2022-09-28T17:01:45.072Z,9.81
2022-09-28T17:04:27.431Z,9.79
2022-09-28T17:07:13.703Z,9.78
2022-09-28T17:09:55.856Z,9.75
2022-09-28T17:12:38.648Z,9.72
2022-09-28T17:15:20.544Z,9.70
2022-09-28T17:18:03.157Z,9.68
2022-09-28T17:20:49.661Z,9.65
2022-09-28T17:23:31.434Z,9.63
2022-09-28T17:26:33.712Z,9.60
2022-09-28T17:29:16.651Z,9.58
2022-09-28T17:31:58.307Z,9.57
2022-09-28T17:34:40.037Z,9.58
2022-09-28T17:37:21.712Z,9.58
2022-09-28T17:40:16.725Z,9.56
2022-09-28T17:42:59.208Z,9.56
2022-09-28T17:45:41.163Z,9.56
2022-09-28T17:48:23.677Z,9.55
2022-09-28T17:51:05.767Z,9.52
2022-09-28T17:53:47.535Z,9.50
2022-09-28T17:56:32.364Z,9.49
2022-09-28T17:59:17.683Z,9.48
2022-09-28T18:02:02.172Z,9.49
2022-09-28T18:04:52.605Z,9.48
2022-09-28T18:07:34.583Z,9.47
2022-09-28T18:10:21.844Z,9.45
2022-09-28T18:13:03.537Z,9.44
2022-09-28T18:15:45.265Z,9.42
2022-09-28T18:18:27.630Z,9.40
2022-09-28T18:21:10.451Z,9.38
2022-09-28T18:23:52.552Z,9.36
2022-09-28T18:26:35.370Z,9.35
2022-09-28T18:29:18.851Z,9.35
2022-09-28T18:32:02.747Z,9.37
2022-09-28T18:34:44.544Z,9.36
2022-09-28T18:37:26.843Z,9.38
2022-09-28T18:40:10.070Z,9.39
2022-09-28T18:42:53.061Z,9.41
2022-09-28T18:45:36.527Z,9.42
2022-09-28T18:48:18.931Z,9.43
2022-09-28T18:51:00.623Z,9.44
2022-09-28T18:53:43.135Z,9.45
2022-09-28T18:56:26.565Z,9.47
2022-09-28T18:59:12.369Z,9.47
2022-09-28T19:01:55.382Z,9.47
2022-09-28T19:04:43.022Z,9.45
2022-09-28T19:07:25.438Z,9.45
2022-09-28T19:10:07.886Z,9.45
2022-09-28T19:12:52.071Z,9.44
2022-09-28T19:15:34.751Z,9.43
2022-09-28T19:18:16.886Z,9.42
2022-09-28T19:21:02.995Z,9.41
2022-09-28T19:23:49.803Z,9.41
2022-09-28T19:26:33.734Z,9.40
2022-09-28T19:29:16.259Z,9.39
2022-09-28T19:31:58.345Z,9.38
2022-09-28T19:34:40.038Z,9.37
2022-09-28T19:37:21.830Z,9.38
2022-09-28T19:40:05.979Z,9.36
2022-09-28T19:42:48.386Z,9.36
2022-09-28T19:45:31.000Z,9.34
2022-09-28T19:48:12.690Z,9.34
2022-09-28T19:51:02.860Z,9.33
2022-09-28T19:53:44.570Z,9.31
2022-09-28T19:56:26.263Z,9.29
2022-09-28T19:59:10.412Z,9.28
2022-09-28T20:01:56.128Z,9.28
2022-09-28T20:04:38.029Z,9.27
2022-09-28T20:07:19.681Z,9.25
2022-09-28T20:10:04.032Z,9.21
2022-09-28T20:12:46.442Z,9.18
2022-09-28T20:15:28.895Z,9.16
2022-09-28T20:18:12.531Z,9.15
2022-09-28T20:21:07.919Z,9.14
2022-09-28T20:23:50.102Z,9.14
2022-09-28T20:26:37.528Z,9.13
2022-09-28T20:29:20.960Z,9.12
2022-09-28T20:32:04.218Z,9.10
2022-09-28T20:34:45.997Z,9.08
2022-09-28T20:37:27.671Z,9.06
2022-09-28T20:40:11.167Z,9.04
2022-09-28T20:42:52.793Z,9.03
2022-09-28T20:45:37.634Z,9.02
2022-09-28T20:48:19.862Z,9.01
2022-09-28T20:51:14.147Z,8.99
2022-09-28T20:53:57.476Z,8.99
2022-09-28T20:56:39.476Z,8.97
2022-09-28T20:59:24.444Z,8.96
2022-09-28T21:02:06.133Z,8.95
2022-09-28T21:04:47.826Z,8.93
2022-09-28T21:07:29.515Z,8.91
2022-09-28T21:10:11.206Z,8.88
2022-09-28T21:12:53.408Z,8.85
2022-09-28T21:15:35.115Z,8.82
2022-09-28T21:18:19.249Z,8.80
2022-09-28T21:21:00.940Z,8.78
2022-09-28T21:23:45.067Z,8.74
2022-09-28T21:26:29.250Z,8.72
2022-09-28T21:29:13.387Z,8.71
2022-09-28T21:31:55.178Z,8.68
2022-09-28T21:34:36.973Z,8.66
2022-09-28T21:37:18.662Z,8.65
2022-09-28T21:40:02.611Z,8.64
2022-09-28T21:42:44.297Z,8.62
2022-09-28T21:45:26.192Z,8.60
2022-09-28T21:48:07.883Z,8.58
2022-09-28T21:51:00.127Z,8.57
2022-09-28T21:53:42.750Z,8.55
2022-09-28T21:56:24.426Z,8.53
2022-09-28T21:59:06.121Z,8.51
2022-09-28T22:01:48.382Z,8.49
2022-09-28T22:04:30.112Z,8.48
2022-09-28T22:07:12.314Z,8.47
2022-09-28T22:09:54.007Z,8.45
2022-09-28T22:12:35.697Z,8.43
2022-09-28T22:15:17.490Z,8.42
2022-09-28T22:17:59.181Z,8.41
2022-09-28T22:20:40.872Z,8.41
2022-09-28T22:23:22.564Z,8.39
2022-09-28T22:26:08.200Z,8.38
2022-09-28T22:28:56.009Z,8.37
2022-09-28T22:31:40.146Z,8.36
2022-09-28T22:34:21.770Z,8.34
2022-09-28T22:37:03.816Z,8.32
2022-09-28T22:39:45.509Z,8.31
2022-09-28T22:42:27.199Z,8.29
2022-09-28T22:45:08.891Z,8.28
2022-09-28T22:47:50.640Z,8.27
2022-09-28T22:50:32.272Z,8.26
2022-09-28T22:53:14.373Z,8.26
2022-09-28T22:55:57.906Z,8.25
2022-09-28T22:58:39.597Z,8.24
2022-09-28T23:01:27.178Z,8.23
2022-09-28T23:04:09.431Z,8.21
2022-09-28T23:06:51.121Z,8.20
2022-09-28T23:09:33.119Z,8.19
2022-09-28T23:12:15.015Z,8.17
2022-09-28T23:14:56.637Z,8.16
2022-09-28T23:17:38.297Z,8.14
2022-09-28T23:20:21.112Z,8.13
2022-09-28T23:23:03.362Z,8.11
2022-09-28T23:25:45.004Z,8.11
2022-09-28T23:28:27.415Z,8.11
2022-09-28T23:31:21.429Z,8.12
2022-09-28T23:34:05.463Z,8.14
2022-09-28T23:36:47.539Z,8.13
2022-09-28T23:39:29.230Z,8.11
2022-09-28T23:42:11.024Z,8.11
2022-09-28T23:44:52.714Z,8.11
2022-09-28T23:47:37.477Z,8.10
2022-09-28T23:50:19.167Z,8.09
2022-09-28T23:53:00.895Z,8.06
2022-09-28T23:55:43.574Z,8.06
2022-09-28T23:58:25.983Z,8.06
